sensor_id;sensor_type;location;lat;lon;timestamp;temperature;humidity
25154;DHT22;47555;51.038;6.280;2022-07-24T00:00:08;17.70;99.90
25154;DHT22;47555;51.038;6.280;2022-07-24T00:02:34;17.70;99.90
25154;DHT22;47555;51.038;6.280;2022-07-24T00:05:00;17.70;99.90
25154;DHT22;47555;51.038;6.280;2022-07-24T00:07:27;17.70;99.90
25154;DHT22;47555;51.038;6.280;2022-07-24T00:09:53;17.70;99.90
25154;DHT22;47555;51.038;6.280;2022-07-24T00:12:19;17.70;99.90
25154;DHT22;47555;51.038;6.280;2022-07-24T00:14:44;17.70;99.90
25154;DHT22;47555;51.038;6.280;2022-07-24T00:17:10;17.60;99.90
25154;DHT22;47555;51.038;6.280;2022-07-24T00:19:36;17.70;99.90
25154;DHT22;47555;51.038;6.280;2022-07-24T00:22:01;17.70;99.90
25154;DHT22;47555;51.038;6.280;2022-07-24T00:24:28;17.70;99.90
25154;DHT22;47555;51.038;6.280;2022-07-24T00:26:54;17.60;99.90
25154;DHT22;47555;51.038;6.280;2022-07-24T00:29:19;17.60;99.90
25154;DHT22;47555;51.038;6.280;2022-07-24T00:31:45;17.70;99.90
25154;DHT22;47555;51.038;6.280;2022-07-24T00:34:10;17.70;99.90
25154;DHT22;47555;51.038;6.280;2022-07-24T00:36:36;17.70;99.90
25154;DHT22;47555;51.038;6.280;2022-07-24T00:39:01;17.70;99.90
25154;DHT22;47555;51.038;6.280;2022-07-24T00:41:27;17.70;99.90
25154;DHT22;47555;51.038;6.280;2022-07-24T00:44:11;17.70;99.90
25154;DHT22;47555;51.038;6.280;2022-07-24T00:46:38;17.70;99.90
25154;DHT22;47555;51.038;6.280;2022-07-24T00:49:05;17.70;99.90
25154;DHT22;47555;51.038;6.280;2022-07-24T00:51:31;17.70;99.90
25154;DHT22;47555;51.038;6.280;2022-07-24T00:53:57;17.60;99.90
25154;DHT22;47555;51.038;6.280;2022-07-24T00:56:22;17.60;99.90
25154;DHT22;47555;51.038;6.280;2022-07-24T00:58:48;17.60;99.90
25154;DHT22;47555;51.038;6.280;2022-07-24T01:01:15;17.60;99.90
25154;DHT22;47555;51.038;6.280;2022-07-24T01:03:41;17.60;99.90
25154;DHT22;47555;51.038;6.280;2022-07-24T01:06:06;17.60;99.90
25154;DHT22;47555;51.038;6.280;2022-07-24T01:08:33;17.80;99.90
25154;DHT22;47555;51.038;6.280;2022-07-24T01:11:02;17.60;99.90
25154;DHT22;47555;51.038;6.280;2022-07-24T01:13:29;17.50;99.90
25154;DHT22;47555;51.038;6.280;2022-07-24T01:15:55;17.60;99.90
25154;DHT22;47555;51.038;6.280;2022-07-24T01:18:20;17.50;99.90
25154;DHT22;47555;51.038;6.280;2022-07-24T01:20:47;17.60;99.90
25154;DHT22;47555;51.038;6.280;2022-07-24T01:23:13;17.50;99.90
25154;DHT22;47555;51.038;6.280;2022-07-24T01:25:39;17.60;99.90
25154;DHT22;47555;51.038;6.280;2022-07-24T01:28:05;17.60;99.90
25154;DHT22;47555;51.038;6.280;2022-07-24T01:30:31;17.60;99.90
25154;DHT22;47555;51.038;6.280;2022-07-24T01:32:57;17.60;99.90
25154;DHT22;47555;51.038;6.280;2022-07-24T01:35:23;17.60;99.90
25154;DHT22;47555;51.038;6.280;2022-07-24T01:37:48;17.60;99.90
25154;DHT22;47555;51.038;6.280;2022-07-24T01:40:14;17.50;99.90
25154;DHT22;47555;51.038;6.280;2022-07-24T01:42:39;17.50;99.90
25154;DHT22;47555;51.038;6.280;2022-07-24T01:45:05;17.50;99.90
25154;DHT22;47555;51.038;6.280;2022-07-24T01:47:31;17.50;99.90
25154;DHT22;47555;51.038;6.280;2022-07-24T01:49:56;17.50;99.90
25154;DHT22;47555;51.038;6.280;2022-07-24T01:52:22;17.50;99.90
25154;DHT22;47555;51.038;6.280;2022-07-24T01:54:51;17.50;99.90
25154;DHT22;47555;51.038;6.280;2022-07-24T01:57:17;17.50;99.90
25154;DHT22;47555;51.038;6.280;2022-07-24T01:59:42;17.40;99.90
25154;DHT22;47555;51.038;6.280;2022-07-24T02:02:08;17.40;99.90
25154;DHT22;47555;51.038;6.280;2022-07-24T02:04:34;17.40;99.90
25154;DHT22;47555;51.038;6.280;2022-07-24T02:06:59;17.40;99.90
25154;DHT22;47555;51.038;6.280;2022-07-24T02:09:25;17.30;99.90
25154;DHT22;47555;51.038;6.280;2022-07-24T02:11:50;17.30;99.90
25154;DHT22;47555;51.038;6.280;2022-07-24T02:14:17;17.30;99.90
25154;DHT22;47555;51.038;6.280;2022-07-24T02:16:42;17.30;99.90
25154;DHT22;47555;51.038;6.280;2022-07-24T02:19:08;17.30;99.90
25154;DHT22;47555;51.038;6.280;2022-07-24T02:21:33;17.20;99.90
25154;DHT22;47555;51.038;6.280;2022-07-24T02:23:59;17.20;99.90
25154;DHT22;47555;51.038;6.280;2022-07-24T02:26:24;17.20;99.90
25154;DHT22;47555;51.038;6.280;2022-07-24T02:28:50;17.20;99.90
25154;DHT22;47555;51.038;6.280;2022-07-24T02:31:16;17.10;99.90
25154;DHT22;47555;51.038;6.280;2022-07-24T02:33:42;17.10;99.90
25154;DHT22;47555;51.038;6.280;2022-07-24T02:36:07;17.10;99.90
25154;DHT22;47555;51.038;6.280;2022-07-24T02:38:33;17.00;99.90
25154;DHT22;47555;51.038;6.280;2022-07-24T02:40:59;17.00;99.90
25154;DHT22;47555;51.038;6.280;2022-07-24T02:43:24;17.00;99.90
25154;DHT22;47555;51.038;6.280;2022-07-24T02:45:50;17.00;99.90
25154;DHT22;47555;51.038;6.280;2022-07-24T02:48:15;17.00;99.90
25154;DHT22;47555;51.038;6.280;2022-07-24T02:50:41;16.90;99.90
25154;DHT22;47555;51.038;6.280;2022-07-24T02:53:07;16.90;99.90
25154;DHT22;47555;51.038;6.280;2022-07-24T02:55:32;16.80;99.90
25154;DHT22;47555;51.038;6.280;2022-07-24T02:57:58;16.80;99.90
25154;DHT22;47555;51.038;6.280;2022-07-24T03:00:24;16.80;99.90
25154;DHT22;47555;51.038;6.280;2022-07-24T03:02:49;16.70;99.90
25154;DHT22;47555;51.038;6.280;2022-07-24T03:05:15;16.70;99.90
25154;DHT22;47555;51.038;6.280;2022-07-24T03:07:41;16.70;99.90
25154;DHT22;47555;51.038;6.280;2022-07-24T03:10:08;16.70;99.90
25154;DHT22;47555;51.038;6.280;2022-07-24T03:12:34;16.60;99.90
25154;DHT22;47555;51.038;6.280;2022-07-24T03:15:00;16.60;99.90
25154;DHT22;47555;51.038;6.280;2022-07-24T03:17:25;16.60;99.90
25154;DHT22;47555;51.038;6.280;2022-07-24T03:19:51;16.60;99.90
25154;DHT22;47555;51.038;6.280;2022-07-24T03:22:16;16.60;99.90
25154;DHT22;47555;51.038;6.280;2022-07-24T03:24:42;16.50;99.90
25154;DHT22;47555;51.038;6.280;2022-07-24T03:27:08;16.50;99.90
25154;DHT22;47555;51.038;6.280;2022-07-24T03:29:33;16.50;99.90
25154;DHT22;47555;51.038;6.280;2022-07-24T03:31:59;16.50;99.90
25154;DHT22;47555;51.038;6.280;2022-07-24T03:34:24;16.40;99.90
25154;DHT22;47555;51.038;6.280;2022-07-24T03:36:50;16.40;99.90
25154;DHT22;47555;51.038;6.280;2022-07-24T03:39:16;16.40;99.90
25154;DHT22;47555;51.038;6.280;2022-07-24T03:41:41;16.40;99.90
25154;DHT22;47555;51.038;6.280;2022-07-24T03:44:07;16.40;99.90
25154;DHT22;47555;51.038;6.280;2022-07-24T03:46:33;16.30;99.90
25154;DHT22;47555;51.038;6.280;2022-07-24T03:48:58;16.30;99.90
25154;DHT22;47555;51.038;6.280;2022-07-24T03:51:24;16.20;99.90
25154;DHT22;47555;51.038;6.280;2022-07-24T03:53:50;16.20;99.90
25154;DHT22;47555;51.038;6.280;2022-07-24T03:56:16;16.10;99.90
25154;DHT22;47555;51.038;6.280;2022-07-24T03:58:42;16.10;99.90
25154;DHT22;47555;51.038;6.280;2022-07-24T04:01:07;16.00;99.90
25154;DHT22;47555;51.038;6.280;2022-07-24T04:03:33;16.00;99.90
25154;DHT22;47555;51.038;6.280;2022-07-24T04:06:03;16.10;99.90
25154;DHT22;47555;51.038;6.280;2022-07-24T04:08:29;15.90;99.90
25154;DHT22;47555;51.038;6.280;2022-07-24T04:10:54;15.90;99.90
25154;DHT22;47555;51.038;6.280;2022-07-24T04:13:24;15.90;99.90
25154;DHT22;47555;51.038;6.280;2022-07-24T04:15:50;15.90;99.90
25154;DHT22;47555;51.038;6.280;2022-07-24T04:18:15;15.90;99.90
25154;DHT22;47555;51.038;6.280;2022-07-24T04:20:41;15.90;99.90
25154;DHT22;47555;51.038;6.280;2022-07-24T04:23:06;15.90;99.90
25154;DHT22;47555;51.038;6.280;2022-07-24T04:25:32;15.90;99.90
25154;DHT22;47555;51.038;6.280;2022-07-24T04:28:02;15.90;99.90
25154;DHT22;47555;51.038;6.280;2022-07-24T04:30:28;16.00;99.90
25154;DHT22;47555;51.038;6.280;2022-07-24T04:32:53;15.90;99.90
25154;DHT22;47555;51.038;6.280;2022-07-24T04:35:19;15.90;99.90
25154;DHT22;47555;51.038;6.280;2022-07-24T04:37:45;16.00;99.90
25154;DHT22;47555;51.038;6.280;2022-07-24T04:40:12;15.90;99.90
25154;DHT22;47555;51.038;6.280;2022-07-24T04:42:38;16.00;99.90
25154;DHT22;47555;51.038;6.280;2022-07-24T04:45:04;16.00;99.90
25154;DHT22;47555;51.038;6.280;2022-07-24T04:47:30;16.00;99.90
25154;DHT22;47555;51.038;6.280;2022-07-24T04:49:56;16.10;99.90
25154;DHT22;47555;51.038;6.280;2022-07-24T04:52:22;16.10;99.90
25154;DHT22;47555;51.038;6.280;2022-07-24T04:54:48;16.20;99.90
25154;DHT22;47555;51.038;6.280;2022-07-24T04:57:13;16.20;99.90
25154;DHT22;47555;51.038;6.280;2022-07-24T04:59:39;16.30;99.90
25154;DHT22;47555;51.038;6.280;2022-07-24T05:02:05;16.40;99.90
25154;DHT22;47555;51.038;6.280;2022-07-24T05:04:30;16.40;99.90
25154;DHT22;47555;51.038;6.280;2022-07-24T05:06:56;16.50;99.90
25154;DHT22;47555;51.038;6.280;2022-07-24T05:09:21;16.60;99.90
25154;DHT22;47555;51.038;6.280;2022-07-24T05:11:47;16.70;99.90
25154;DHT22;47555;51.038;6.280;2022-07-24T05:14:12;16.70;99.90
25154;DHT22;47555;51.038;6.280;2022-07-24T05:16:38;16.80;99.90
25154;DHT22;47555;51.038;6.280;2022-07-24T05:19:03;16.90;99.90
25154;DHT22;47555;51.038;6.280;2022-07-24T05:21:29;16.90;99.90
25154;DHT22;47555;51.038;6.280;2022-07-24T05:23:55;17.00;99.90
25154;DHT22;47555;51.038;6.280;2022-07-24T05:26:20;17.10;99.90
25154;DHT22;47555;51.038;6.280;2022-07-24T05:28:46;17.20;99.90
25154;DHT22;47555;51.038;6.280;2022-07-24T05:31:11;17.30;99.90
25154;DHT22;47555;51.038;6.280;2022-07-24T05:33:37;17.40;99.90
25154;DHT22;47555;51.038;6.280;2022-07-24T05:36:03;17.50;99.90
25154;DHT22;47555;51.038;6.280;2022-07-24T05:38:29;17.60;99.90
25154;DHT22;47555;51.038;6.280;2022-07-24T05:40:54;17.70;99.90
25154;DHT22;47555;51.038;6.280;2022-07-24T05:43:20;17.70;99.90
25154;DHT22;47555;51.038;6.280;2022-07-24T05:45:46;17.80;99.90
25154;DHT22;47555;51.038;6.280;2022-07-24T05:48:11;17.90;99.90
25154;DHT22;47555;51.038;6.280;2022-07-24T05:50:37;18.00;99.90
25154;DHT22;47555;51.038;6.280;2022-07-24T05:53:03;18.10;99.90
25154;DHT22;47555;51.038;6.280;2022-07-24T05:55:28;18.20;99.90
25154;DHT22;47555;51.038;6.280;2022-07-24T05:57:55;18.30;99.90
25154;DHT22;47555;51.038;6.280;2022-07-24T06:00:21;18.50;99.90
25154;DHT22;47555;51.038;6.280;2022-07-24T06:02:46;18.60;99.90
25154;DHT22;47555;51.038;6.280;2022-07-24T06:05:13;18.80;99.90
25154;DHT22;47555;51.038;6.280;2022-07-24T06:07:39;19.00;99.90
25154;DHT22;47555;51.038;6.280;2022-07-24T06:10:05;19.10;99.90
25154;DHT22;47555;51.038;6.280;2022-07-24T06:12:31;19.20;99.90
25154;DHT22;47555;51.038;6.280;2022-07-24T06:14:56;19.30;99.90
25154;DHT22;47555;51.038;6.280;2022-07-24T06:17:22;19.40;99.90
25154;DHT22;47555;51.038;6.280;2022-07-24T06:19:47;19.60;99.90
25154;DHT22;47555;51.038;6.280;2022-07-24T06:22:13;19.70;99.90
25154;DHT22;47555;51.038;6.280;2022-07-24T06:24:38;19.80;99.90
25154;DHT22;47555;51.038;6.280;2022-07-24T06:27:04;19.90;99.90
25154;DHT22;47555;51.038;6.280;2022-07-24T06:29:31;20.10;99.90
25154;DHT22;47555;51.038;6.280;2022-07-24T06:31:56;20.20;99.90
25154;DHT22;47555;51.038;6.280;2022-07-24T06:34:22;20.30;99.90
25154;DHT22;47555;51.038;6.280;2022-07-24T06:36:50;20.40;99.90
25154;DHT22;47555;51.038;6.280;2022-07-24T06:39:16;20.60;99.90
25154;DHT22;47555;51.038;6.280;2022-07-24T06:41:42;20.70;99.90
25154;DHT22;47555;51.038;6.280;2022-07-24T06:44:08;20.80;99.90
25154;DHT22;47555;51.038;6.280;2022-07-24T06:46:33;20.90;99.80
25154;DHT22;47555;51.038;6.280;2022-07-24T06:48:59;21.00;99.90
25154;DHT22;47555;51.038;6.280;2022-07-24T06:51:25;21.10;99.90
25154;DHT22;47555;51.038;6.280;2022-07-24T06:53:50;21.30;99.90
25154;DHT22;47555;51.038;6.280;2022-07-24T06:56:16;21.40;99.50
25154;DHT22;47555;51.038;6.280;2022-07-24T06:58:42;21.50;98.20
25154;DHT22;47555;51.038;6.280;2022-07-24T07:01:07;21.70;98.00
25154;DHT22;47555;51.038;6.280;2022-07-24T07:03:33;21.80;98.00
25154;DHT22;47555;51.038;6.280;2022-07-24T07:05:59;21.90;98.20
25154;DHT22;47555;51.038;6.280;2022-07-24T07:08:24;22.00;97.10
25154;DHT22;47555;51.038;6.280;2022-07-24T07:10:50;22.20;98.70
25154;DHT22;47555;51.038;6.280;2022-07-24T07:13:15;22.40;98.80
25154;DHT22;47555;51.038;6.280;2022-07-24T07:15:41;22.70;96.40
25154;DHT22;47555;51.038;6.280;2022-07-24T07:18:06;22.80;95.20
25154;DHT22;47555;51.038;6.280;2022-07-24T07:20:32;23.00;94.50
25154;DHT22;47555;51.038;6.280;2022-07-24T07:22:58;23.20;92.90
25154;DHT22;47555;51.038;6.280;2022-07-24T07:25:23;23.30;93.80
25154;DHT22;47555;51.038;6.280;2022-07-24T07:27:49;23.50;91.10
25154;DHT22;47555;51.038;6.280;2022-07-24T07:30:15;23.60;89.90
25154;DHT22;47555;51.038;6.280;2022-07-24T07:32:40;23.70;89.10
25154;DHT22;47555;51.038;6.280;2022-07-24T07:35:06;23.90;87.60
25154;DHT22;47555;51.038;6.280;2022-07-24T07:37:32;24.00;86.30
25154;DHT22;47555;51.038;6.280;2022-07-24T07:39:57;24.10;85.90
25154;DHT22;47555;51.038;6.280;2022-07-24T07:42:23;24.30;83.90
25154;DHT22;47555;51.038;6.280;2022-07-24T07:44:49;24.40;82.70
25154;DHT22;47555;51.038;6.280;2022-07-24T07:47:14;24.50;81.10
25154;DHT22;47555;51.038;6.280;2022-07-24T07:49:40;24.60;79.70
25154;DHT22;47555;51.038;6.280;2022-07-24T07:52:05;24.80;79.00
25154;DHT22;47555;51.038;6.280;2022-07-24T07:54:31;25.00;79.70
25154;DHT22;47555;51.038;6.280;2022-07-24T07:56:56;25.10;81.20
25154;DHT22;47555;51.038;6.280;2022-07-24T07:59:22;25.30;76.90
25154;DHT22;47555;51.038;6.280;2022-07-24T08:01:47;25.50;78.20
25154;DHT22;47555;51.038;6.280;2022-07-24T08:04:14;25.70;75.50
25154;DHT22;47555;51.038;6.280;2022-07-24T08:06:40;25.90;67.80
25154;DHT22;47555;51.038;6.280;2022-07-24T08:09:05;26.00;66.00
25154;DHT22;47555;51.038;6.280;2022-07-24T08:11:31;26.10;63.90
25154;DHT22;47555;51.038;6.280;2022-07-24T08:13:56;26.20;61.60
25154;DHT22;47555;51.038;6.280;2022-07-24T08:16:23;26.30;62.90
25154;DHT22;47555;51.038;6.280;2022-07-24T08:18:49;26.50;59.70
25154;DHT22;47555;51.038;6.280;2022-07-24T08:21:14;26.60;59.30
25154;DHT22;47555;51.038;6.280;2022-07-24T08:23:41;26.70;56.40
25154;DHT22;47555;51.038;6.280;2022-07-24T08:26:06;26.80;55.60
25154;DHT22;47555;51.038;6.280;2022-07-24T08:28:32;26.90;55.10
25154;DHT22;47555;51.038;6.280;2022-07-24T08:30:58;26.90;54.20
25154;DHT22;47555;51.038;6.280;2022-07-24T08:33:24;27.10;53.00
25154;DHT22;47555;51.038;6.280;2022-07-24T08:35:49;27.20;51.60
25154;DHT22;47555;51.038;6.280;2022-07-24T08:38:15;27.30;51.30
25154;DHT22;47555;51.038;6.280;2022-07-24T08:40:40;27.40;50.10
25154;DHT22;47555;51.038;6.280;2022-07-24T08:43:08;27.50;49.10
25154;DHT22;47555;51.038;6.280;2022-07-24T08:45:39;27.50;46.70
25154;DHT22;47555;51.038;6.280;2022-07-24T08:48:06;27.50;44.70
25154;DHT22;47555;51.038;6.280;2022-07-24T08:50:34;27.60;45.70
25154;DHT22;47555;51.038;6.280;2022-07-24T08:52:59;27.60;45.90
25154;DHT22;47555;51.038;6.280;2022-07-24T08:55:28;27.60;45.40
25154;DHT22;47555;51.038;6.280;2022-07-24T08:57:58;27.70;44.10
25154;DHT22;47555;51.038;6.280;2022-07-24T09:00:25;27.80;42.90
25154;DHT22;47555;51.038;6.280;2022-07-24T09:02:50;27.80;42.10
25154;DHT22;47555;51.038;6.280;2022-07-24T09:05:16;27.90;41.20
25154;DHT22;47555;51.038;6.280;2022-07-24T09:07:42;27.90;39.70
25154;DHT22;47555;51.038;6.280;2022-07-24T09:10:13;28.00;39.50
25154;DHT22;47555;51.038;6.280;2022-07-24T09:12:40;28.10;39.40
25154;DHT22;47555;51.038;6.280;2022-07-24T09:15:41;28.20;38.10
25154;DHT22;47555;51.038;6.280;2022-07-24T09:18:07;28.30;37.80
25154;DHT22;47555;51.038;6.280;2022-07-24T09:20:37;28.40;37.70
25154;DHT22;47555;51.038;6.280;2022-07-24T09:23:03;28.60;39.00
25154;DHT22;47555;51.038;6.280;2022-07-24T09:25:28;28.80;37.30
25154;DHT22;47555;51.038;6.280;2022-07-24T09:27:59;28.80;35.50
25154;DHT22;47555;51.038;6.280;2022-07-24T09:35:37;29.00;35.50
25154;DHT22;47555;51.038;6.280;2022-07-24T09:38:04;29.10;35.00
25154;DHT22;47555;51.038;6.280;2022-07-24T09:40:33;29.00;33.80
25154;DHT22;47555;51.038;6.280;2022-07-24T09:46:05;29.00;34.50
25154;DHT22;47555;51.038;6.280;2022-07-24T09:48:33;28.90;33.20
25154;DHT22;47555;51.038;6.280;2022-07-24T09:51:05;29.00;33.70
25154;DHT22;47555;51.038;6.280;2022-07-24T09:53:33;29.00;33.80
25154;DHT22;47555;51.038;6.280;2022-07-24T09:56:12;29.00;33.50
25154;DHT22;47555;51.038;6.280;2022-07-24T09:58:40;29.10;33.90
25154;DHT22;47555;51.038;6.280;2022-07-24T10:01:14;29.20;32.30
25154;DHT22;47555;51.038;6.280;2022-07-24T10:03:42;29.30;32.30
25154;DHT22;47555;51.038;6.280;2022-07-24T10:06:10;29.30;32.50
25154;DHT22;47555;51.038;6.280;2022-07-24T10:08:39;29.50;32.80
25154;DHT22;47555;51.038;6.280;2022-07-24T10:11:05;29.70;32.40
25154;DHT22;47555;51.038;6.280;2022-07-24T10:13:31;29.80;31.40
25154;DHT22;47555;51.038;6.280;2022-07-24T10:18:42;30.00;30.80
25154;DHT22;47555;51.038;6.280;2022-07-24T10:26:47;30.30;30.00
25154;DHT22;47555;51.038;6.280;2022-07-24T10:29:22;30.40;29.60
25154;DHT22;47555;51.038;6.280;2022-07-24T10:31:50;30.60;29.40
25154;DHT22;47555;51.038;6.280;2022-07-24T10:40:03;30.60;28.50
25154;DHT22;47555;51.038;6.280;2022-07-24T10:42:29;30.60;29.00
25154;DHT22;47555;51.038;6.280;2022-07-24T10:45:15;30.50;28.50
25154;DHT22;47555;51.038;6.280;2022-07-24T10:47:42;30.60;28.10
25154;DHT22;47555;51.038;6.280;2022-07-24T10:50:08;30.60;28.30
25154;DHT22;47555;51.038;6.280;2022-07-24T10:52:34;30.50;27.90
25154;DHT22;47555;51.038;6.280;2022-07-24T10:55:26;30.50;27.90
25154;DHT22;47555;51.038;6.280;2022-07-24T10:58:29;30.60;27.40
25154;DHT22;47555;51.038;6.280;2022-07-24T11:00:49;30.60;26.10
25154;DHT22;47555;51.038;6.280;2022-07-24T11:03:23;30.50;26.00
25154;DHT22;47555;51.038;6.280;2022-07-24T11:06:08;30.50;27.70
25154;DHT22;47555;51.038;6.280;2022-07-24T11:08:41;30.50;27.30
25154;DHT22;47555;51.038;6.280;2022-07-24T11:11:15;30.60;27.30
25154;DHT22;47555;51.038;6.280;2022-07-24T11:13:42;30.70;27.20
25154;DHT22;47555;51.038;6.280;2022-07-24T11:21:30;30.80;26.90
25154;DHT22;47555;51.038;6.280;2022-07-24T11:26:57;30.80;26.70
25154;DHT22;47555;51.038;6.280;2022-07-24T11:29:34;30.80;27.80
25154;DHT22;47555;51.038;6.280;2022-07-24T11:32:12;31.00;28.00
25154;DHT22;47555;51.038;6.280;2022-07-24T11:34:45;31.00;27.70
25154;DHT22;47555;51.038;6.280;2022-07-24T11:37:12;31.10;27.00
25154;DHT22;47555;51.038;6.280;2022-07-24T11:39:39;31.00;26.30
25154;DHT22;47555;51.038;6.280;2022-07-24T11:42:10;31.00;26.60
25154;DHT22;47555;51.038;6.280;2022-07-24T11:44:37;30.90;26.50
25154;DHT22;47555;51.038;6.280;2022-07-24T11:47:19;31.00;26.50
25154;DHT22;47555;51.038;6.280;2022-07-24T11:52:28;31.00;27.10
25154;DHT22;47555;51.038;6.280;2022-07-24T11:55:00;31.00;27.20
25154;DHT22;47555;51.038;6.280;2022-07-24T11:57:29;31.00;27.00
25154;DHT22;47555;51.038;6.280;2022-07-24T11:59:55;31.00;26.30
25154;DHT22;47555;51.038;6.280;2022-07-24T12:02:21;31.10;26.60
25154;DHT22;47555;51.038;6.280;2022-07-24T12:04:48;31.10;26.10
25154;DHT22;47555;51.038;6.280;2022-07-24T12:07:22;31.20;26.00
25154;DHT22;47555;51.038;6.280;2022-07-24T12:12:28;31.20;25.50
25154;DHT22;47555;51.038;6.280;2022-07-24T12:17:27;31.20;25.20
25154;DHT22;47555;51.038;6.280;2022-07-24T12:19:55;31.30;24.80
25154;DHT22;47555;51.038;6.280;2022-07-24T12:22:23;31.30;24.70
25154;DHT22;47555;51.038;6.280;2022-07-24T12:24:50;31.40;25.10
25154;DHT22;47555;51.038;6.280;2022-07-24T12:27:38;31.40;25.00
25154;DHT22;47555;51.038;6.280;2022-07-24T12:30:20;31.50;23.50
25154;DHT22;47555;51.038;6.280;2022-07-24T12:32:54;31.60;23.20
25154;DHT22;47555;51.038;6.280;2022-07-24T12:35:20;31.60;22.80
25154;DHT22;47555;51.038;6.280;2022-07-24T12:37:46;31.60;22.40
25154;DHT22;47555;51.038;6.280;2022-07-24T12:43:14;31.70;23.10
25154;DHT22;47555;51.038;6.280;2022-07-24T12:45:39;31.70;23.70
25154;DHT22;47555;51.038;6.280;2022-07-24T12:48:07;31.80;23.70
25154;DHT22;47555;51.038;6.280;2022-07-24T12:50:33;31.90;23.70
25154;DHT22;47555;51.038;6.280;2022-07-24T12:53:04;32.00;23.80
25154;DHT22;47555;51.038;6.280;2022-07-24T12:55:30;32.00;23.50
25154;DHT22;47555;51.038;6.280;2022-07-24T12:58:03;32.10;23.30
25154;DHT22;47555;51.038;6.280;2022-07-24T13:00:30;32.10;22.40
25154;DHT22;47555;51.038;6.280;2022-07-24T13:02:57;32.20;22.40
25154;DHT22;47555;51.038;6.280;2022-07-24T13:05:41;32.20;21.20
25154;DHT22;47555;51.038;6.280;2022-07-24T13:08:10;32.10;22.70
25154;DHT22;47555;51.038;6.280;2022-07-24T13:10:35;32.20;22.60
25154;DHT22;47555;51.038;6.280;2022-07-24T13:13:02;32.20;22.60
25154;DHT22;47555;51.038;6.280;2022-07-24T13:15:28;32.20;22.80
25154;DHT22;47555;51.038;6.280;2022-07-24T13:17:54;32.20;22.10
25154;DHT22;47555;51.038;6.280;2022-07-24T13:20:19;32.20;22.50
25154;DHT22;47555;51.038;6.280;2022-07-24T13:22:45;32.10;22.30
25154;DHT22;47555;51.038;6.280;2022-07-24T13:25:10;32.10;22.90
25154;DHT22;47555;51.038;6.280;2022-07-24T13:27:36;32.20;23.20
25154;DHT22;47555;51.038;6.280;2022-07-24T13:30:02;32.10;23.50
25154;DHT22;47555;51.038;6.280;2022-07-24T13:32:28;32.20;22.80
25154;DHT22;47555;51.038;6.280;2022-07-24T13:34:53;32.30;21.90
25154;DHT22;47555;51.038;6.280;2022-07-24T13:37:19;32.30;22.40
25154;DHT22;47555;51.038;6.280;2022-07-24T13:39:45;32.30;22.80
25154;DHT22;47555;51.038;6.280;2022-07-24T13:42:10;32.40;22.60
25154;DHT22;47555;51.038;6.280;2022-07-24T13:44:36;32.50;22.70
25154;DHT22;47555;51.038;6.280;2022-07-24T13:47:02;32.60;21.70
25154;DHT22;47555;51.038;6.280;2022-07-24T13:49:28;32.60;21.90
25154;DHT22;47555;51.038;6.280;2022-07-24T13:51:54;32.50;22.30
25154;DHT22;47555;51.038;6.280;2022-07-24T13:54:20;32.60;21.40
25154;DHT22;47555;51.038;6.280;2022-07-24T13:56:45;32.60;22.20
25154;DHT22;47555;51.038;6.280;2022-07-24T13:59:11;32.70;22.60
25154;DHT22;47555;51.038;6.280;2022-07-24T14:01:37;32.80;22.70
25154;DHT22;47555;51.038;6.280;2022-07-24T14:04:03;32.80;21.60
25154;DHT22;47555;51.038;6.280;2022-07-24T14:06:29;32.80;21.70
25154;DHT22;47555;51.038;6.280;2022-07-24T14:08:55;32.90;22.30
25154;DHT22;47555;51.038;6.280;2022-07-24T14:11:21;32.90;22.70
25154;DHT22;47555;51.038;6.280;2022-07-24T14:13:47;33.00;22.70
25154;DHT22;47555;51.038;6.280;2022-07-24T14:16:12;33.10;22.20
25154;DHT22;47555;51.038;6.280;2022-07-24T14:18:38;33.10;22.00
25154;DHT22;47555;51.038;6.280;2022-07-24T14:21:04;33.20;20.50
25154;DHT22;47555;51.038;6.280;2022-07-24T14:23:29;33.20;21.10
25154;DHT22;47555;51.038;6.280;2022-07-24T14:25:55;33.20;21.00
25154;DHT22;47555;51.038;6.280;2022-07-24T14:28:20;33.30;21.90
25154;DHT22;47555;51.038;6.280;2022-07-24T14:30:46;33.30;21.70
25154;DHT22;47555;51.038;6.280;2022-07-24T14:33:12;33.40;19.70
25154;DHT22;47555;51.038;6.280;2022-07-24T14:35:37;33.30;20.20
25154;DHT22;47555;51.038;6.280;2022-07-24T14:38:03;33.20;20.70
25154;DHT22;47555;51.038;6.280;2022-07-24T14:40:29;33.10;19.70
25154;DHT22;47555;51.038;6.280;2022-07-24T14:42:55;33.00;21.50
25154;DHT22;47555;51.038;6.280;2022-07-24T14:45:21;33.00;22.00
25154;DHT22;47555;51.038;6.280;2022-07-24T14:47:47;33.00;20.10
25154;DHT22;47555;51.038;6.280;2022-07-24T14:50:12;33.00;20.50
25154;DHT22;47555;51.038;6.280;2022-07-24T14:52:38;33.00;21.00
25154;DHT22;47555;51.038;6.280;2022-07-24T14:55:07;32.90;19.90
25154;DHT22;47555;51.038;6.280;2022-07-24T14:57:33;32.80;20.00
25154;DHT22;47555;51.038;6.280;2022-07-24T14:59:59;32.80;20.60
25154;DHT22;47555;51.038;6.280;2022-07-24T15:02:24;32.70;21.00
25154;DHT22;47555;51.038;6.280;2022-07-24T15:04:50;32.80;21.10
25154;DHT22;47555;51.038;6.280;2022-07-24T15:07:16;33.00;21.40
25154;DHT22;47555;51.038;6.280;2022-07-24T15:09:42;33.00;21.50
25154;DHT22;47555;51.038;6.280;2022-07-24T15:12:07;33.10;21.00
25154;DHT22;47555;51.038;6.280;2022-07-24T15:14:33;33.20;20.80
25154;DHT22;47555;51.038;6.280;2022-07-24T15:16:59;33.20;21.00
25154;DHT22;47555;51.038;6.280;2022-07-24T15:19:25;33.20;20.50
25154;DHT22;47555;51.038;6.280;2022-07-24T15:21:51;33.20;21.10
25154;DHT22;47555;51.038;6.280;2022-07-24T15:24:16;33.30;21.10
25154;DHT22;47555;51.038;6.280;2022-07-24T15:26:42;33.40;20.80
25154;DHT22;47555;51.038;6.280;2022-07-24T15:29:08;33.40;21.10
25154;DHT22;47555;51.038;6.280;2022-07-24T15:31:33;33.50;21.60
25154;DHT22;47555;51.038;6.280;2022-07-24T15:33:59;33.50;21.10
25154;DHT22;47555;51.038;6.280;2022-07-24T15:36:25;33.40;19.70
25154;DHT22;47555;51.038;6.280;2022-07-24T15:38:50;33.30;19.30
25154;DHT22;47555;51.038;6.280;2022-07-24T15:41:16;33.10;19.40
25154;DHT22;47555;51.038;6.280;2022-07-24T15:43:41;33.00;20.10
25154;DHT22;47555;51.038;6.280;2022-07-24T15:46:07;32.90;19.60
25154;DHT22;47555;51.038;6.280;2022-07-24T15:48:33;32.70;19.90
25154;DHT22;47555;51.038;6.280;2022-07-24T15:50:59;32.70;19.70
25154;DHT22;47555;51.038;6.280;2022-07-24T15:53:24;32.60;20.60
25154;DHT22;47555;51.038;6.280;2022-07-24T15:55:50;32.50;20.00
25154;DHT22;47555;51.038;6.280;2022-07-24T15:58:15;32.50;21.20
25154;DHT22;47555;51.038;6.280;2022-07-24T16:00:41;32.60;21.50
25154;DHT22;47555;51.038;6.280;2022-07-24T16:03:07;32.60;21.40
25154;DHT22;47555;51.038;6.280;2022-07-24T16:05:32;32.70;21.70
25154;DHT22;47555;51.038;6.280;2022-07-24T16:07:58;32.90;20.90